createdAt,value
2023-01-07T00:01:16.907Z,99115.41
2023-01-07T00:03:44.471Z,99108.41
2023-01-07T00:06:14.998Z,99127.00
2023-01-07T00:08:43.630Z,99116.16
2023-01-07T00:11:13.178Z,99128.06
2023-01-07T00:13:40.123Z,99118.25
2023-01-07T00:16:09.832Z,99129.66
2023-01-07T00:18:37.312Z,99123.38
2023-01-07T00:21:07.111Z,99130.38
2023-01-07T00:23:35.254Z,99126.72
2023-01-07T00:26:12.578Z,99129.78
2023-01-07T00:28:41.261Z,99124.44
2023-01-07T00:31:19.973Z,99122.53
2023-01-07T00:33:56.658Z,99121.34
2023-01-07T00:36:24.738Z,99126.09
2023-01-07T00:38:59.152Z,99134.97
2023-01-07T00:41:26.330Z,99140.72
2023-01-07T00:43:52.979Z,99124.47
2023-01-07T00:46:19.688Z,99137.59
2023-01-07T00:48:46.364Z,99130.06
2023-01-07T00:51:14.535Z,99135.94
2023-01-07T00:53:41.928Z,99131.22
2023-01-07T00:56:12.849Z,99113.13
2023-01-07T00:58:39.553Z,99119.72
2023-01-07T01:01:06.412Z,99134.34
2023-01-07T01:03:33.765Z,99130.75
2023-01-07T01:06:06.045Z,99126.38
2023-01-07T01:08:32.685Z,99120.44
2023-01-07T01:11:07.006Z,99132.81
2023-01-07T01:13:34.582Z,99123.22
2023-01-07T01:16:01.601Z,99117.09
2023-01-07T01:18:28.415Z,99108.97
2023-01-07T01:20:55.139Z,99128.75
2023-01-07T01:23:22.364Z,99120.97
2023-01-07T01:25:48.999Z,99133.25
2023-01-07T01:28:15.704Z,99133.00
2023-01-07T01:30:42.276Z,99120.50
2023-01-07T01:33:08.906Z,99128.88
2023-01-07T01:35:39.835Z,99120.13
2023-01-07T01:38:06.756Z,99108.75
2023-01-07T01:40:33.375Z,99119.19
2023-01-07T01:43:00.029Z,99125.47
2023-01-07T01:45:27.073Z,99115.16
2023-01-07T01:48:04.929Z,99116.97
2023-01-07T01:50:38.572Z,99112.75
2023-01-07T01:53:27.481Z,99104.13
2023-01-07T01:56:01.179Z,99113.13
2023-01-07T01:58:33.540Z,99115.28
2023-01-07T02:01:00.377Z,99132.50
2023-01-07T02:03:30.283Z,99131.91
2023-01-07T02:05:57.506Z,99136.50
2023-01-07T02:08:24.200Z,99134.41
2023-01-07T02:11:19.523Z,99141.22
2023-01-07T02:14:18.800Z,99138.88
2023-01-07T02:16:51.357Z,99141.66
2023-01-07T02:19:33.518Z,99141.81
2023-01-07T02:22:13.871Z,99142.44
2023-01-07T02:25:18.747Z,99138.31
2023-01-07T02:27:54.243Z,99142.81
2023-01-07T02:30:51.922Z,99144.72
2023-01-07T02:33:40.986Z,99149.84
2023-01-07T02:36:13.629Z,99148.41
2023-01-07T02:39:00.187Z,99140.50
2023-01-07T02:41:54.498Z,99147.63
2023-01-07T02:44:39.782Z,99149.44
2023-01-07T02:47:12.097Z,99145.97
2023-01-07T02:49:38.700Z,99144.84
2023-01-07T02:52:23.688Z,99136.09
2023-01-07T02:54:59.736Z,99140.72
2023-01-07T02:57:35.290Z,99141.81
2023-01-07T03:00:08.045Z,99140.94
2023-01-07T03:03:20.456Z,99136.47
2023-01-07T03:06:31.521Z,99142.16
2023-01-07T03:09:28.174Z,99127.47
2023-01-07T03:12:05.403Z,99127.56
2023-01-07T03:14:48.281Z,99124.50
2023-01-07T03:17:21.587Z,99128.53
2023-01-07T03:19:55.061Z,99131.91
2023-01-07T03:22:25.361Z,99123.50
2023-01-07T03:24:54.573Z,99142.16
2023-01-07T03:27:23.221Z,99141.91
2023-01-07T03:29:52.912Z,99136.31
2023-01-07T03:32:25.820Z,99125.63
2023-01-07T03:34:52.723Z,99136.53
2023-01-07T03:37:23.465Z,99144.03
2023-01-07T03:39:51.029Z,99153.72
2023-01-07T03:42:41.531Z,99130.94
2023-01-07T03:45:12.948Z,99147.56
2023-01-07T03:47:43.237Z,99141.09
2023-01-07T03:50:10.705Z,99140.28
2023-01-07T03:52:37.567Z,99138.88
2023-01-07T03:55:05.070Z,99140.34
2023-01-07T03:57:32.651Z,99144.09
2023-01-07T03:59:59.404Z,99142.81
2023-01-07T04:02:26.371Z,99149.16
2023-01-07T04:04:53.628Z,99150.22
2023-01-07T04:07:20.219Z,99143.56
2023-01-07T04:09:47.338Z,99149.75
2023-01-07T04:12:14.354Z,99156.78
2023-01-07T04:14:40.904Z,99150.09
2023-01-07T04:17:07.509Z,99146.81
2023-01-07T04:19:34.271Z,99148.78
2023-01-07T04:22:00.944Z,99159.66
2023-01-07T04:24:27.487Z,99158.59
2023-01-07T04:26:54.098Z,99155.19
2023-01-07T04:29:21.068Z,99160.16
2023-01-07T04:31:47.829Z,99171.06
2023-01-07T04:34:14.447Z,99165.94
2023-01-07T04:36:41.136Z,99170.44
2023-01-07T04:39:07.746Z,99156.84
2023-01-07T04:41:34.457Z,99162.81
2023-01-07T04:44:01.056Z,99166.31
2023-01-07T04:46:27.745Z,99164.97
2023-01-07T04:48:54.399Z,99153.28
2023-01-07T04:51:21.054Z,99163.34
2023-01-07T04:53:48.186Z,99164.97
2023-01-07T04:56:14.873Z,99168.06
2023-01-07T04:58:41.893Z,99168.22
2023-01-07T05:01:08.964Z,99172.97
2023-01-07T05:03:35.740Z,99172.34
2023-01-07T05:06:03.179Z,99176.59
2023-01-07T05:08:30.168Z,99178.03
2023-01-07T05:10:56.900Z,99175.28
2023-01-07T05:13:24.368Z,99184.03
2023-01-07T05:15:50.998Z,99179.31
2023-01-07T05:18:17.697Z,99171.22
2023-01-07T05:20:46.425Z,99182.84
2023-01-07T05:23:13.062Z,99178.19
2023-01-07T05:25:39.794Z,99171.44
2023-01-07T05:28:06.534Z,99172.63
2023-01-07T05:30:33.221Z,99173.81
2023-01-07T05:32:59.900Z,99174.09
2023-01-07T05:35:26.510Z,99183.09
2023-01-07T05:37:53.132Z,99183.13
2023-01-07T05:40:19.760Z,99184.56
2023-01-07T05:42:46.357Z,99169.50
2023-01-07T05:45:13.008Z,99169.00
2023-01-07T05:47:39.667Z,99187.59
2023-01-07T05:50:06.608Z,99179.09
2023-01-07T05:52:33.251Z,99191.22
2023-01-07T05:54:59.842Z,99194.22
2023-01-07T05:57:26.387Z,99190.00
2023-01-07T05:59:52.982Z,99189.47
2023-01-07T06:02:19.557Z,99191.81
2023-01-07T06:04:46.220Z,99200.13
2023-01-07T06:07:12.992Z,99199.47
2023-01-07T06:09:39.572Z,99194.28
2023-01-07T06:12:07.338Z,99203.50
2023-01-07T06:14:33.928Z,99204.72
2023-01-07T06:17:00.498Z,99203.75
2023-01-07T06:19:28.389Z,99210.03
2023-01-07T06:21:54.938Z,99196.97
2023-01-07T06:24:21.537Z,99194.66
2023-01-07T06:26:48.261Z,99206.47
2023-01-07T06:29:15.015Z,99203.44
2023-01-07T06:31:41.646Z,99196.16
2023-01-07T06:34:08.386Z,99196.16
2023-01-07T06:36:35.051Z,99199.09
2023-01-07T06:39:01.644Z,99209.66
2023-01-07T06:41:28.214Z,99207.13
2023-01-07T06:43:54.909Z,99207.63
2023-01-07T06:46:21.630Z,99194.75
2023-01-07T06:48:48.341Z,99202.53
2023-01-07T06:51:14.964Z,99204.94
2023-01-07T06:53:41.597Z,99204.81
2023-01-07T06:56:08.279Z,99214.28
2023-01-07T06:58:34.879Z,99219.75
2023-01-07T07:01:08.432Z,99212.31
2023-01-07T07:03:35.393Z,99205.53
2023-01-07T07:06:02.149Z,99215.22
2023-01-07T07:08:28.780Z,99217.38
2023-01-07T07:10:55.399Z,99219.16
2023-01-07T07:13:22.179Z,99218.31
2023-01-07T07:15:49.893Z,99223.91
2023-01-07T07:18:19.753Z,99222.63
2023-01-07T07:20:47.517Z,99229.31
2023-01-07T07:23:14.182Z,99225.94
2023-01-07T07:25:40.891Z,99225.16
2023-01-07T07:28:07.540Z,99220.56
2023-01-07T07:30:47.064Z,99227.31
2023-01-07T07:33:16.073Z,99221.75
2023-01-07T07:35:42.664Z,99220.53
2023-01-07T07:38:09.399Z,99228.53
2023-01-07T07:40:36.364Z,99226.13
2023-01-07T07:43:11.024Z,99230.16
2023-01-07T07:45:40.318Z,99240.59
2023-01-07T07:48:08.256Z,99230.75
2023-01-07T07:50:35.969Z,99231.91
2023-01-07T07:53:02.751Z,99238.97
2023-01-07T07:55:29.437Z,99233.63
2023-01-07T07:57:58.292Z,99230.72
2023-01-07T08:02:51.840Z,99221.00
2023-01-07T08:05:18.558Z,99228.97
2023-01-07T08:07:45.171Z,99233.22
2023-01-07T08:10:11.808Z,99227.69
2023-01-07T08:12:39.141Z,99221.88
2023-01-07T08:15:07.334Z,99233.78
2023-01-07T08:17:36.222Z,99228.75
2023-01-07T08:20:07.647Z,99235.63
2023-01-07T08:22:34.744Z,99226.78
2023-01-07T08:25:01.825Z,99228.22
2023-01-07T08:27:29.154Z,99236.72
2023-01-07T08:29:56.707Z,99228.41
2023-01-07T08:32:23.319Z,99243.50
2023-01-07T08:34:50.030Z,99241.75
2023-01-07T08:37:16.848Z,99246.38
2023-01-07T08:39:43.454Z,99242.34
2023-01-07T08:42:10.003Z,99250.94
2023-01-07T08:44:36.638Z,99245.28
2023-01-07T08:47:03.258Z,99242.22
2023-01-07T08:49:29.928Z,99242.28
2023-01-07T08:51:56.552Z,99231.16
2023-01-07T08:54:23.154Z,99240.59
2023-01-07T08:56:49.886Z,99228.81
2023-01-07T08:59:16.550Z,99221.66
2023-01-07T09:01:43.231Z,99225.88
2023-01-07T09:04:10.019Z,99219.28
2023-01-07T09:06:36.588Z,99222.41
2023-01-07T09:09:03.361Z,99230.38
2023-01-07T09:11:29.964Z,99221.81
2023-01-07T09:13:56.551Z,99218.91
2023-01-07T09:16:23.302Z,99224.81
2023-01-07T09:18:50.437Z,99218.91
2023-01-07T09:21:17.098Z,99214.09
2023-01-07T09:23:43.725Z,99206.50
2023-01-07T09:26:10.345Z,99206.38
2023-01-07T09:28:36.972Z,99209.06
2023-01-07T09:31:04.325Z,99213.22
2023-01-07T09:33:31.213Z,99208.69
2023-01-07T09:35:57.826Z,99200.16
2023-01-07T09:38:24.420Z,99192.09
2023-01-07T09:40:51.706Z,99182.09
2023-01-07T09:43:58.670Z,99180.75
2023-01-07T09:46:28.851Z,99175.88
2023-01-07T09:49:01.294Z,99175.44
2023-01-07T09:51:37.337Z,99159.75
2023-01-07T09:54:07.099Z,99157.06
2023-01-07T09:56:36.458Z,99140.44
2023-01-07T09:59:05.636Z,99138.38
2023-01-07T10:01:35.173Z,99136.88
2023-01-07T10:04:01.773Z,99142.03
2023-01-07T10:06:51.445Z,99132.25
2023-01-07T10:09:36.327Z,99141.28
2023-01-07T10:12:39.420Z,99134.44
2023-01-07T10:15:09.069Z,99124.38
2023-01-07T10:17:47.882Z,99126.63
2023-01-07T10:20:35.747Z,99123.13
2023-01-07T10:23:09.222Z,99118.16
2023-01-07T10:25:43.317Z,99122.03
2023-01-07T10:28:48.819Z,99124.28
2023-01-07T10:31:21.613Z,99110.00
2023-01-07T10:33:49.585Z,99112.06
2023-01-07T10:36:28.729Z,99108.03
2023-01-07T10:39:15.919Z,99090.44
2023-01-07T10:42:02.733Z,99099.28
2023-01-07T10:45:00.321Z,99094.41
2023-01-07T10:47:38.783Z,99094.28
2023-01-07T10:50:24.590Z,99093.09
2023-01-07T10:53:05.475Z,99093.78
2023-01-07T10:55:38.098Z,99095.16
2023-01-07T10:58:04.995Z,99082.72
2023-01-07T11:00:32.793Z,99089.47
2023-01-07T11:03:00.074Z,99090.56
2023-01-07T11:05:36.087Z,99083.75
2023-01-07T11:08:04.980Z,99078.19
2023-01-07T11:10:36.525Z,99071.59
2023-01-07T11:13:08.807Z,99072.78
2023-01-07T11:15:40.767Z,99071.06
2023-01-07T11:18:16.718Z,99068.19
2023-01-07T11:20:54.011Z,99064.47
2023-01-07T11:23:38.801Z,99053.84
2023-01-07T11:26:08.253Z,99073.56
2023-01-07T11:28:35.222Z,99059.78
2023-01-07T11:31:02.525Z,99065.59
2023-01-07T11:34:03.419Z,99052.78
2023-01-07T11:36:55.777Z,99042.34
2023-01-07T11:39:25.403Z,99026.66
2023-01-07T11:42:00.653Z,99044.53
2023-01-07T11:44:27.371Z,99039.03
2023-01-07T11:46:55.043Z,99035.31
2023-01-07T11:49:44.888Z,99030.41
2023-01-07T11:52:19.784Z,99026.16
2023-01-07T11:54:52.668Z,99024.59
2023-01-07T11:57:25.551Z,99023.91
2023-01-07T12:00:06.254Z,99023.25
2023-01-07T12:02:32.990Z,99019.78
2023-01-07T12:05:26.362Z,99020.28
2023-01-07T12:07:54.508Z,99016.56
2023-01-07T12:10:34.248Z,99008.81
2023-01-07T12:13:03.946Z,99001.63
2023-01-07T12:15:46.783Z,98999.31
2023-01-07T12:18:33.473Z,99005.63
2023-01-07T12:21:22.868Z,98996.44
2023-01-07T12:24:11.080Z,98997.00
2023-01-07T12:27:04.451Z,98989.53
2023-01-07T12:29:48.399Z,98981.94
2023-01-07T12:32:42.563Z,98986.47
2023-01-07T12:35:25.463Z,98985.53
2023-01-07T12:38:36.604Z,98975.97
2023-01-07T12:41:10.855Z,98988.63
2023-01-07T12:43:43.085Z,98985.31
2023-01-07T12:46:16.544Z,98981.41
2023-01-07T12:48:46.479Z,98985.88
2023-01-07T12:51:31.244Z,98991.56
2023-01-07T12:54:48.640Z,98984.81
2023-01-07T12:57:28.163Z,98978.84
2023-01-07T13:00:13.556Z,98976.63
2023-01-07T13:03:04.017Z,98985.47
2023-01-07T13:05:42.803Z,98976.19
2023-01-07T13:08:18.449Z,98978.91
2023-01-07T13:11:14.381Z,98976.69
2023-01-07T13:13:47.402Z,98958.75
2023-01-07T13:16:14.789Z,98974.84
2023-01-07T13:18:41.516Z,98970.66
2023-01-07T13:21:12.686Z,98964.66
2023-01-07T13:24:00.658Z,98973.25
2023-01-07T13:26:45.488Z,98979.25
2023-01-07T13:29:30.512Z,98971.38
2023-01-07T13:31:59.942Z,98977.22
2023-01-07T13:34:53.088Z,98978.25
2023-01-07T13:37:41.424Z,98978.97
2023-01-07T13:40:17.705Z,98964.09
2023-01-07T13:43:07.320Z,98977.28
2023-01-07T13:45:37.034Z,98963.53
2023-01-07T13:48:08.168Z,98971.56
2023-01-07T13:50:45.270Z,98969.84
2023-01-07T13:53:14.728Z,98972.03
2023-01-07T13:55:43.971Z,98978.25
2023-01-07T13:58:58.324Z,98964.06
2023-01-07T14:01:33.607Z,98981.78
2023-01-07T14:04:03.387Z,98973.25
2023-01-07T14:06:30.222Z,98965.78
2023-01-07T14:08:58.772Z,98965.34
2023-01-07T14:11:32.625Z,98977.16
2023-01-07T14:14:05.430Z,98978.97
2023-01-07T14:16:39.946Z,98974.78
2023-01-07T14:19:37.479Z,98978.81
2023-01-07T14:22:41.815Z,98977.97
2023-01-07T14:25:08.360Z,98979.03
2023-01-07T14:27:50.444Z,98975.44
2023-01-07T14:30:20.766Z,98974.38
2023-01-07T14:32:56.457Z,98974.47
2023-01-07T14:35:31.451Z,98977.94
2023-01-07T14:37:58.239Z,98979.53
2023-01-07T14:40:30.458Z,98979.13
2023-01-07T14:42:57.871Z,98980.03
2023-01-07T14:45:36.740Z,98986.13
2023-01-07T14:48:29.410Z,98986.00
2023-01-07T14:51:21.964Z,98988.91
2023-01-07T14:53:59.945Z,98989.22
2023-01-07T14:56:43.622Z,98984.03
2023-01-07T14:59:15.858Z,98991.63
2023-01-07T15:02:15.698Z,98980.47
2023-01-07T15:05:07.128Z,98989.03
2023-01-07T15:07:38.210Z,98981.22
2023-01-07T15:10:42.495Z,98993.16
2023-01-07T15:13:39.329Z,98984.34
2023-01-07T15:16:11.656Z,98996.19
2023-01-07T15:18:51.025Z,98988.63
2023-01-07T15:21:55.664Z,98997.84
2023-01-07T15:24:53.600Z,98996.28
2023-01-07T15:27:20.102Z,98995.03
2023-01-07T15:30:16.457Z,98989.50
2023-01-07T15:33:12.260Z,99000.50
2023-01-07T15:35:43.082Z,98999.84
2023-01-07T15:38:38.281Z,98998.75
2023-01-07T15:41:05.101Z,98985.31
2023-01-07T15:43:32.107Z,99000.53
2023-01-07T15:46:01.364Z,98993.91
2023-01-07T15:48:28.178Z,98993.38
2023-01-07T15:50:55.409Z,99003.06
2023-01-07T15:53:25.784Z,99000.50
2023-01-07T15:56:10.369Z,99000.41
2023-01-07T15:58:44.900Z,99005.56
2023-01-07T16:01:21.677Z,99005.16
2023-01-07T16:03:51.493Z,99007.22
2023-01-07T16:06:36.153Z,99012.38
2023-01-07T16:09:18.798Z,99007.13
2023-01-07T16:11:45.690Z,99008.16
2023-01-07T16:14:17.990Z,99013.91
2023-01-07T16:16:45.104Z,99000.47
2023-01-07T16:19:18.059Z,99006.94
2023-01-07T16:21:55.916Z,99006.94
2023-01-07T16:24:22.901Z,99007.22
2023-01-07T16:26:52.954Z,99013.75
2023-01-07T16:29:27.122Z,99008.25
2023-01-07T16:31:54.714Z,98999.25
2023-01-07T16:34:24.433Z,99007.31
2023-01-07T16:37:00.009Z,99007.91
2023-01-07T16:39:38.758Z,99014.28
2023-01-07T16:42:22.747Z,99016.44
2023-01-07T16:44:55.186Z,99013.88
2023-01-07T16:47:22.849Z,99018.47
2023-01-07T16:49:50.767Z,99015.53
2023-01-07T16:52:19.408Z,99019.97
2023-01-07T16:54:47.756Z,99023.09
2023-01-07T16:57:14.559Z,99021.69
2023-01-07T16:59:45.729Z,99020.00
2023-01-07T17:02:30.836Z,99020.00
2023-01-07T17:05:11.020Z,99023.72
2023-01-07T17:07:38.777Z,99015.25
2023-01-07T17:10:06.267Z,99021.44
2023-01-07T17:12:37.514Z,99023.59
2023-01-07T17:15:28.618Z,99026.53
2023-01-07T17:18:15.129Z,99027.44
2023-01-07T17:20:53.022Z,99015.31
2023-01-07T17:23:26.151Z,99033.41
2023-01-07T17:25:58.814Z,99039.19
2023-01-07T17:28:28.476Z,99038.88
2023-01-07T17:30:55.359Z,99020.53
2023-01-07T17:33:24.115Z,99037.34
2023-01-07T17:35:51.765Z,99039.31
2023-01-07T17:38:19.056Z,99043.56
2023-01-07T17:40:46.771Z,99035.81
2023-01-07T17:43:36.985Z,99029.44
2023-01-07T17:46:09.354Z,99040.19
2023-01-07T17:48:36.506Z,99042.03
2023-01-07T17:51:04.650Z,99039.34
2023-01-07T17:53:42.627Z,99040.31
2023-01-07T17:56:09.435Z,99041.47
2023-01-07T17:58:38.046Z,99031.00
2023-01-07T18:01:08.253Z,99041.59
2023-01-07T18:03:34.929Z,99038.19
2023-01-07T18:06:02.123Z,99046.81
2023-01-07T18:08:28.924Z,99046.53
2023-01-07T18:11:15.433Z,99051.16
2023-01-07T18:13:42.194Z,99050.78
2023-01-07T18:16:16.628Z,99043.28
2023-01-07T18:18:43.235Z,99052.56
2023-01-07T18:21:11.811Z,99045.81
2023-01-07T18:23:38.714Z,99048.75
2023-01-07T18:26:06.202Z,99041.56
2023-01-07T18:28:32.883Z,99053.97
2023-01-07T18:30:59.503Z,99042.00
2023-01-07T18:33:26.140Z,99047.47
2023-01-07T18:35:53.596Z,99059.91
2023-01-07T18:38:20.157Z,99046.63
2023-01-07T18:40:46.762Z,99058.22
2023-01-07T18:43:14.943Z,99051.72
2023-01-07T18:45:43.389Z,99060.34
2023-01-07T18:48:11.743Z,99047.19
2023-01-07T18:50:46.416Z,99049.03
2023-01-07T18:53:13.321Z,99059.63
2023-01-07T18:55:41.650Z,99055.22
2023-01-07T18:58:09.959Z,99050.41
2023-01-07T19:00:36.637Z,99058.72
2023-01-07T19:03:03.574Z,99057.00
2023-01-07T19:05:30.643Z,99060.97
2023-01-07T19:07:57.397Z,99057.59
2023-01-07T19:10:25.687Z,99051.25
2023-01-07T19:12:52.674Z,99045.72
2023-01-07T19:15:19.534Z,99051.63
2023-01-07T19:17:46.084Z,99043.13
2023-01-07T19:20:15.301Z,99045.97
2023-01-07T19:22:42.217Z,99044.00
2023-01-07T19:25:09.203Z,99040.63
2023-01-07T19:27:35.939Z,99042.00
2023-01-07T19:30:02.690Z,99039.03
2023-01-07T19:32:30.486Z,99036.38
2023-01-07T19:34:57.122Z,99031.56
2023-01-07T19:37:23.732Z,99036.38
2023-01-07T19:39:50.353Z,99047.84
2023-01-07T19:42:16.950Z,99047.34
2023-01-07T19:44:43.652Z,99038.16
2023-01-07T19:47:10.479Z,99040.69
2023-01-07T19:49:37.162Z,99043.63
2023-01-07T19:52:03.916Z,99048.25
2023-01-07T19:54:30.566Z,99039.38
2023-01-07T19:56:57.245Z,99045.13
2023-01-07T19:59:25.015Z,99041.06
2023-01-07T20:01:53.660Z,99031.09
2023-01-07T20:04:20.553Z,99046.72
2023-01-07T20:06:47.897Z,99034.69
2023-01-07T20:09:14.546Z,99025.06
2023-01-07T20:11:43.063Z,99045.53
2023-01-07T20:14:10.657Z,99038.22
2023-01-07T20:16:39.546Z,99044.88
2023-01-07T20:19:06.798Z,99048.63
2023-01-07T20:21:33.657Z,99045.22
2023-01-07T20:24:00.482Z,99045.28
2023-01-07T20:26:30.119Z,99054.47
2023-01-07T20:28:58.804Z,99057.97
2023-01-07T20:31:27.447Z,99047.38
2023-01-07T20:33:57.735Z,99051.34
2023-01-07T20:36:30.039Z,99051.16
2023-01-07T20:38:57.081Z,99041.28
2023-01-07T20:41:26.267Z,99054.81
2023-01-07T20:43:55.562Z,99051.41
2023-01-07T20:46:23.154Z,99059.31
2023-01-07T20:48:50.297Z,99055.91
2023-01-07T20:51:17.409Z,99062.00
2023-01-07T20:53:44.774Z,99062.25
2023-01-07T20:56:12.532Z,99074.31
2023-01-07T20:58:39.682Z,99058.06
2023-01-07T21:01:10.266Z,99072.88
2023-01-07T21:03:38.858Z,99066.56
2023-01-07T21:06:10.199Z,99075.16
2023-01-07T21:08:37.427Z,99064.34
2023-01-07T21:11:04.616Z,99072.88
2023-01-07T21:13:31.220Z,99074.00
2023-01-07T21:16:05.587Z,99050.59
2023-01-07T21:18:33.676Z,99059.78
2023-01-07T21:21:02.086Z,99066.66
2023-01-07T21:23:28.783Z,99069.88
2023-01-07T21:25:55.375Z,99064.53
2023-01-07T21:28:21.989Z,99064.00
2023-01-07T21:30:48.639Z,99050.44
2023-01-07T21:33:15.692Z,99059.50
2023-01-07T21:35:42.330Z,99060.34
2023-01-07T21:38:09.026Z,99059.84
2023-01-07T21:40:38.256Z,99059.25
2023-01-07T21:43:04.840Z,99053.06
2023-01-07T21:45:31.481Z,99051.47
2023-01-07T21:47:58.152Z,99051.22
2023-01-07T21:50:24.715Z,99049.66
2023-01-07T21:52:51.297Z,99051.09
2023-01-07T21:55:18.042Z,99053.31
2023-01-07T21:57:44.685Z,99040.66
2023-01-07T22:00:11.990Z,99044.41
2023-01-07T22:02:38.620Z,99038.84
2023-01-07T22:05:05.619Z,99040.94
2023-01-07T22:07:32.245Z,99040.59
2023-01-07T22:09:58.915Z,99027.81
2023-01-07T22:12:25.800Z,99039.94
2023-01-07T22:14:52.392Z,99040.47
2023-01-07T22:17:19.076Z,99026.19
2023-01-07T22:19:45.683Z,99025.28
2023-01-07T22:22:12.281Z,99032.56
2023-01-07T22:24:38.887Z,99022.38
2023-01-07T22:27:05.454Z,99028.97
2023-01-07T22:29:32.798Z,99028.59
2023-01-07T22:31:59.440Z,99023.75
2023-01-07T22:34:26.101Z,99011.88
2023-01-07T22:37:01.484Z,99011.56
2023-01-07T22:39:36.539Z,99006.41
2023-01-07T22:42:10.603Z,98996.69
2023-01-07T22:44:45.457Z,98994.72
2023-01-07T22:47:17.188Z,98997.88
2023-01-07T22:49:44.395Z,99001.78
2023-01-07T22:52:11.918Z,98987.25
2023-01-07T22:54:39.572Z,98999.88
2023-01-07T22:57:08.586Z,98996.44
2023-01-07T22:59:35.854Z,99005.41
2023-01-07T23:02:02.679Z,98984.63
2023-01-07T23:04:29.721Z,99003.91
2023-01-07T23:06:56.354Z,98991.41
2023-01-07T23:09:22.976Z,98995.66
2023-01-07T23:11:50.655Z,98989.34
2023-01-07T23:14:19.857Z,98992.66
2023-01-07T23:16:46.862Z,98991.78
2023-01-07T23:19:14.143Z,98982.94
2023-01-07T23:21:44.626Z,98985.97
2023-01-07T23:24:12.618Z,98977.38
2023-01-07T23:26:40.213Z,98983.69
2023-01-07T23:29:07.185Z,98982.72
2023-01-07T23:31:35.279Z,98983.44
2023-01-07T23:34:02.254Z,98983.44
2023-01-07T23:36:28.873Z,98980.16
2023-01-07T23:38:55.684Z,98973.53
2023-01-07T23:41:22.267Z,98973.97
2023-01-07T23:43:49.561Z,98965.53
2023-01-07T23:46:16.664Z,98980.31
2023-01-07T23:48:43.314Z,98965.31
2023-01-07T23:51:18.182Z,98968.91
2023-01-07T23:53:45.845Z,98951.38
2023-01-07T23:56:13.444Z,98970.13
2023-01-07T23:58:40.242Z,98960.41
